createdAt,value
2019-03-08T00:01:04.859Z,81.00
2019-03-08T00:03:31.913Z,81.40
2019-03-08T00:05:58.854Z,81.00
2019-03-08T00:08:25.982Z,81.30
2019-03-08T00:10:53.015Z,82.80
2019-03-08T00:13:20.326Z,82.50
2019-03-08T00:15:47.389Z,82.70
2019-03-08T00:18:14.364Z,83.40
2019-03-08T00:20:41.457Z,83.60
2019-03-08T00:23:08.527Z,83.90
2019-03-08T00:25:35.737Z,83.60
2019-03-08T00:28:02.787Z,83.70
2019-03-08T00:30:30.008Z,83.70
2019-03-08T00:32:57.089Z,83.90
2019-03-08T00:35:24.168Z,84.10
2019-03-08T00:37:51.152Z,84.50
2019-03-08T00:40:18.199Z,84.50
2019-03-08T00:42:45.246Z,85.20
2019-03-08T00:45:12.375Z,84.60
2019-03-08T00:47:39.434Z,84.70
2019-03-08T00:50:06.845Z,85.60
2019-03-08T00:52:33.927Z,85.50
2019-03-08T00:55:02.737Z,85.20
2019-03-08T00:57:29.725Z,85.10
2019-03-08T00:59:56.728Z,85.30
2019-03-08T01:02:24.202Z,85.20
2019-03-08T01:04:51.286Z,85.10
2019-03-08T01:07:18.393Z,85.00
2019-03-08T01:09:45.639Z,85.40
2019-03-08T01:12:12.739Z,85.10
2019-03-08T01:14:39.807Z,85.40
2019-03-08T01:17:06.825Z,84.90
2019-03-08T01:19:34.010Z,84.80
2019-03-08T01:22:01.138Z,84.50
2019-03-08T01:24:28.152Z,84.50
2019-03-08T01:26:55.058Z,84.20
2019-03-08T01:29:23.926Z,84.50
2019-03-08T01:31:50.984Z,84.10
2019-03-08T01:34:18.040Z,84.60
2019-03-08T01:36:45.337Z,84.70
2019-03-08T01:39:12.409Z,84.60
2019-03-08T01:41:39.468Z,84.30
2019-03-08T01:44:06.534Z,85.00
2019-03-08T01:46:33.564Z,84.00
2019-03-08T01:49:00.505Z,84.50
2019-03-08T01:51:27.561Z,83.10
2019-03-08T01:53:55.024Z,79.80
2019-03-08T01:56:22.032Z,77.00
2019-03-08T01:58:48.977Z,77.90
2019-03-08T02:01:16.054Z,77.80
2019-03-08T02:03:44.132Z,77.80
2019-03-08T02:06:11.182Z,77.00
2019-03-08T02:08:38.215Z,74.00
2019-03-08T02:11:07.079Z,74.40
2019-03-08T02:13:34.132Z,74.50
2019-03-08T02:16:01.113Z,73.90
2019-03-08T02:18:28.143Z,74.70
2019-03-08T02:20:55.122Z,73.00
2019-03-08T02:23:22.208Z,69.70
2019-03-08T02:25:49.436Z,68.20
2019-03-08T02:28:16.581Z,67.10
2019-03-08T02:30:43.540Z,66.50
2019-03-08T02:33:10.634Z,67.60
2019-03-08T02:35:37.715Z,67.70
2019-03-08T02:38:04.860Z,67.60
2019-03-08T02:40:33.478Z,67.70
2019-03-08T02:43:01.350Z,68.20
2019-03-08T02:45:28.464Z,67.90
2019-03-08T02:47:55.498Z,67.60
2019-03-08T02:50:22.596Z,67.60
2019-03-08T02:52:49.632Z,67.70
2019-03-08T02:55:16.720Z,67.70
2019-03-08T02:57:43.729Z,66.40
2019-03-08T03:00:10.968Z,65.70
2019-03-08T03:02:38.104Z,65.90
2019-03-08T03:05:05.344Z,65.60
2019-03-08T03:07:32.424Z,65.60
2019-03-08T03:09:59.489Z,65.60
2019-03-08T03:12:26.392Z,65.40
2019-03-08T03:14:53.644Z,65.90
2019-03-08T03:17:20.601Z,66.20
2019-03-08T03:19:47.655Z,66.20
2019-03-08T03:22:14.684Z,66.30
2019-03-08T03:24:41.704Z,67.30
2019-03-08T03:27:08.753Z,67.30
2019-03-08T03:29:35.865Z,67.20
2019-03-08T03:32:03.002Z,67.20
2019-03-08T03:34:30.317Z,67.20
2019-03-08T03:36:57.460Z,67.60
2019-03-08T03:39:24.557Z,67.60
2019-03-08T03:41:51.530Z,68.40
2019-03-08T03:44:18.511Z,68.50
2019-03-08T03:46:45.495Z,68.20
2019-03-08T03:49:12.881Z,68.60
2019-03-08T03:51:39.895Z,68.50
2019-03-08T03:54:07.082Z,68.00
2019-03-08T03:56:34.123Z,68.50
2019-03-08T03:59:01.186Z,68.50
2019-03-08T04:01:30.097Z,68.60
2019-03-08T04:03:57.370Z,68.70
2019-03-08T04:06:24.432Z,68.70
2019-03-08T04:08:51.553Z,68.60
2019-03-08T04:11:19.035Z,68.70
2019-03-08T04:13:46.306Z,69.00
2019-03-08T04:16:13.366Z,68.30
2019-03-08T04:18:40.729Z,68.50
2019-03-08T04:21:07.839Z,68.50
2019-03-08T04:23:34.854Z,68.30
2019-03-08T04:26:02.042Z,67.90
2019-03-08T04:28:29.020Z,68.20
2019-03-08T04:30:56.072Z,68.10
2019-03-08T04:33:23.187Z,67.20
2019-03-08T04:35:50.192Z,67.70
2019-03-08T04:38:17.449Z,67.30
2019-03-08T04:40:44.590Z,67.40
2019-03-08T04:43:11.682Z,67.40
2019-03-08T04:45:38.769Z,67.40
2019-03-08T04:48:05.989Z,67.80
2019-03-08T04:50:33.104Z,67.40
2019-03-08T04:53:00.230Z,67.60
2019-03-08T04:55:27.536Z,67.50
2019-03-08T04:57:54.654Z,67.40
2019-03-08T05:00:21.668Z,68.30
2019-03-08T05:02:48.759Z,68.20
2019-03-08T05:05:15.776Z,67.70
2019-03-08T05:07:42.876Z,68.60
2019-03-08T05:10:11.680Z,68.40
2019-03-08T05:12:38.864Z,68.70
2019-03-08T05:15:05.862Z,68.50
2019-03-08T05:17:32.875Z,68.80
2019-03-08T05:19:59.986Z,68.90
2019-03-08T05:22:27.036Z,69.00
2019-03-08T05:24:54.066Z,69.30
2019-03-08T05:27:21.241Z,69.00
2019-03-08T05:29:48.673Z,69.70
2019-03-08T05:32:15.707Z,70.00
2019-03-08T05:34:42.867Z,70.30
2019-03-08T05:37:09.966Z,70.20
2019-03-08T05:39:37.083Z,70.40
2019-03-08T05:42:04.217Z,70.10
2019-03-08T05:44:31.180Z,70.10
2019-03-08T05:46:58.429Z,70.30
2019-03-08T05:49:25.671Z,71.40
2019-03-08T05:51:52.681Z,69.40
2019-03-08T05:54:20.190Z,70.40
2019-03-08T05:56:47.495Z,70.40
2019-03-08T05:59:14.799Z,70.50
2019-03-08T06:01:41.879Z,70.40
2019-03-08T06:04:09.249Z,70.50
2019-03-08T06:06:36.429Z,71.00
2019-03-08T06:09:06.832Z,71.20
2019-03-08T06:11:33.893Z,71.20
2019-03-08T06:14:00.896Z,71.50
2019-03-08T06:16:27.996Z,70.60
2019-03-08T06:18:55.184Z,71.10
2019-03-08T06:21:22.450Z,71.10
2019-03-08T06:23:49.565Z,71.10
2019-03-08T06:26:16.640Z,70.90
2019-03-08T06:28:43.574Z,71.30
2019-03-08T06:31:11.964Z,71.00
2019-03-08T06:33:39.073Z,70.90
2019-03-08T06:36:06.158Z,70.70
2019-03-08T06:38:33.604Z,70.50
2019-03-08T06:41:00.758Z,70.40
2019-03-08T06:43:28.123Z,70.80
2019-03-08T06:45:55.451Z,70.60
2019-03-08T06:48:22.686Z,71.60
2019-03-08T06:50:49.914Z,70.70
2019-03-08T06:53:16.986Z,70.00
2019-03-08T06:55:44.415Z,69.60
2019-03-08T06:58:13.477Z,69.20
2019-03-08T07:00:42.396Z,69.00
2019-03-08T07:03:09.469Z,69.40
2019-03-08T07:05:36.460Z,69.10
2019-03-08T07:08:04.032Z,70.20
2019-03-08T07:10:31.194Z,70.40
2019-03-08T07:13:03.262Z,70.30
2019-03-08T07:15:27.505Z,70.40
2019-03-08T07:17:54.594Z,70.50
2019-03-08T07:20:23.564Z,70.60
2019-03-08T07:22:52.726Z,71.40
2019-03-08T07:25:34.065Z,71.90
2019-03-08T07:28:03.014Z,71.70
2019-03-08T07:30:35.064Z,71.50
2019-03-08T07:33:04.080Z,70.80
2019-03-08T07:35:33.226Z,70.70
2019-03-08T07:38:18.825Z,71.00
2019-03-08T07:40:56.403Z,71.50
2019-03-08T07:43:25.303Z,71.00
2019-03-08T07:46:06.759Z,70.30
2019-03-08T07:48:35.727Z,70.30
2019-03-08T07:51:21.056Z,70.50
2019-03-08T07:53:50.024Z,70.40
2019-03-08T07:56:18.975Z,70.10
2019-03-08T07:59:00.065Z,70.10
2019-03-08T08:01:32.038Z,70.80
2019-03-08T08:04:20.950Z,71.10
2019-03-08T08:06:58.554Z,71.10
2019-03-08T08:09:27.575Z,71.40
2019-03-08T08:11:56.824Z,72.80
2019-03-08T08:14:39.303Z,74.30
2019-03-08T08:17:05.104Z,75.20
2019-03-08T08:19:37.233Z,76.70
2019-03-08T08:22:22.959Z,76.40
2019-03-08T08:24:58.035Z,76.70
2019-03-08T08:27:30.060Z,78.70
2019-03-08T08:30:11.014Z,78.90
2019-03-08T08:32:40.020Z,79.40
2019-03-08T08:35:09.447Z,79.60
2019-03-08T08:37:38.355Z,79.50
2019-03-08T08:40:13.808Z,80.80
2019-03-08T08:43:01.409Z,81.90
2019-03-08T08:45:39.625Z,82.80
2019-03-08T08:48:23.881Z,82.90
2019-03-08T08:51:08.030Z,84.20
2019-03-08T08:53:37.030Z,84.10
2019-03-08T08:56:05.969Z,84.30
2019-03-08T08:58:37.792Z,84.50
2019-03-08T09:01:09.738Z,85.10
2019-03-08T09:03:56.828Z,85.80
2019-03-08T09:06:26.061Z,85.80
2019-03-08T09:08:57.785Z,85.80
2019-03-08T09:11:26.624Z,87.20
2019-03-08T09:14:04.890Z,85.80
2019-03-08T09:16:36.745Z,86.10
2019-03-08T09:19:22.521Z,86.70
2019-03-08T09:21:57.065Z,87.20
2019-03-08T09:24:29.084Z,87.30
2019-03-08T09:27:16.446Z,87.90
2019-03-08T09:29:45.523Z,87.40
2019-03-08T09:32:17.068Z,87.70
2019-03-08T09:35:03.058Z,87.20
2019-03-08T09:37:50.396Z,87.10
2019-03-08T09:40:19.737Z,87.80
2019-03-08T09:43:06.938Z,87.90
2019-03-08T09:45:35.968Z,88.00
2019-03-08T09:48:22.043Z,88.50
2019-03-08T09:50:56.991Z,89.50
2019-03-08T09:53:38.056Z,90.50
2019-03-08T09:56:11.180Z,90.40
2019-03-08T09:58:40.521Z,90.40
2019-03-08T10:01:16.881Z,90.50
2019-03-08T10:03:48.874Z,90.10
2019-03-08T10:06:35.873Z,88.10
2019-03-08T10:09:07.606Z,86.40
2019-03-08T10:11:38.351Z,82.40
2019-03-08T10:14:10.046Z,82.80
2019-03-08T10:16:55.476Z,79.90
2019-03-08T10:19:41.276Z,80.10
2019-03-08T10:22:25.513Z,80.90
2019-03-08T10:25:13.403Z,77.00
2019-03-08T10:27:54.019Z,76.40
2019-03-08T10:30:23.114Z,73.90
2019-03-08T10:32:58.480Z,74.40
2019-03-08T10:35:33.406Z,73.80
2019-03-08T10:38:02.377Z,74.80
2019-03-08T10:40:46.340Z,70.70
2019-03-08T10:43:30.850Z,70.40
2019-03-08T10:46:04.370Z,68.90
2019-03-08T10:48:33.388Z,67.80
2019-03-08T10:51:05.804Z,68.40
2019-03-08T10:53:40.810Z,68.60
2019-03-08T10:56:21.885Z,69.10
2019-03-08T10:59:07.219Z,65.30
2019-03-08T11:01:54.612Z,66.30
2019-03-08T11:04:26.469Z,66.30
2019-03-08T11:07:04.511Z,67.20
2019-03-08T11:09:36.546Z,66.40
2019-03-08T11:12:11.301Z,65.40
2019-03-08T11:14:40.356Z,64.60
2019-03-08T11:17:12.330Z,64.40
2019-03-08T11:19:59.642Z,64.40
2019-03-08T11:22:33.816Z,64.20
2019-03-08T11:25:08.593Z,63.40
2019-03-08T11:27:53.189Z,64.30
2019-03-08T11:30:26.619Z,62.20
2019-03-08T11:33:04.582Z,64.30
2019-03-08T11:35:33.689Z,64.40
2019-03-08T11:38:03.093Z,63.30
2019-03-08T11:40:35.155Z,64.50
2019-03-08T11:43:04.033Z,64.30
2019-03-08T11:45:35.960Z,64.40
2019-03-08T11:48:20.435Z,64.00
2019-03-08T11:50:49.484Z,64.10
2019-03-08T11:53:27.762Z,64.50
2019-03-08T11:56:00.020Z,64.50
2019-03-08T11:58:44.517Z,64.30
2019-03-08T12:01:19.610Z,64.00
2019-03-08T12:04:08.164Z,61.70
2019-03-08T12:06:43.623Z,61.20
2019-03-08T12:09:17.198Z,59.70
2019-03-08T12:11:49.247Z,60.40
2019-03-08T12:14:24.406Z,61.20
2019-03-08T12:16:57.922Z,60.30
2019-03-08T12:19:39.093Z,61.30
2019-03-08T12:22:20.182Z,60.70
2019-03-08T12:24:55.052Z,61.10
2019-03-08T12:27:30.224Z,60.40
2019-03-08T12:29:59.293Z,60.60
2019-03-08T12:32:32.974Z,60.80
2019-03-08T12:35:01.885Z,61.40
2019-03-08T12:37:33.286Z,60.90
2019-03-08T12:40:02.293Z,61.20
2019-03-08T12:42:48.366Z,61.10
2019-03-08T12:45:32.430Z,61.40
2019-03-08T12:48:10.583Z,62.10
2019-03-08T12:50:42.192Z,61.30
2019-03-08T12:53:29.193Z,60.30
2019-03-08T12:56:00.902Z,59.50
2019-03-08T12:58:29.879Z,59.50
2019-03-08T13:00:58.791Z,56.80
2019-03-08T13:03:43.395Z,58.00
2019-03-08T13:06:12.659Z,58.00
2019-03-08T13:08:58.485Z,55.80
2019-03-08T13:11:32.912Z,56.00
2019-03-08T13:13:55.643Z,55.10
2019-03-08T13:16:22.665Z,55.30
2019-03-08T13:18:49.648Z,54.00
2019-03-08T13:21:16.889Z,54.70
2019-03-08T13:23:43.913Z,51.20
2019-03-08T13:26:10.858Z,51.20
2019-03-08T13:28:37.940Z,51.20
2019-03-08T13:31:05.169Z,51.00
2019-03-08T13:33:32.505Z,51.50
2019-03-08T13:36:01.247Z,51.10
2019-03-08T13:38:34.974Z,51.40
2019-03-08T13:41:02.065Z,50.90
2019-03-08T13:43:30.394Z,51.10
2019-03-08T13:45:57.529Z,50.10
2019-03-08T13:48:26.359Z,49.80
2019-03-08T13:50:54.522Z,50.20
2019-03-08T13:53:21.592Z,49.10
2019-03-08T13:55:48.704Z,48.60
2019-03-08T13:58:15.719Z,49.30
2019-03-08T14:00:43.042Z,49.90
2019-03-08T14:03:12.029Z,50.60
2019-03-08T14:05:38.936Z,50.80
2019-03-08T14:08:06.091Z,49.70
2019-03-08T14:10:33.239Z,49.30
2019-03-08T14:13:00.312Z,50.00
2019-03-08T14:15:27.568Z,49.70
2019-03-08T14:17:54.786Z,49.00
2019-03-08T14:20:21.868Z,49.30
2019-03-08T14:22:49.239Z,50.00
2019-03-08T14:25:16.556Z,49.90
2019-03-08T14:27:44.072Z,50.00
2019-03-08T14:30:13.320Z,50.30
2019-03-08T14:32:42.159Z,50.60
2019-03-08T14:35:09.637Z,50.60
2019-03-08T14:37:37.315Z,50.50
2019-03-08T14:40:07.649Z,50.50
2019-03-08T14:42:40.379Z,50.50
2019-03-08T14:45:11.644Z,51.30
2019-03-08T14:47:38.974Z,51.80
2019-03-08T14:50:08.526Z,51.20
2019-03-08T14:52:36.095Z,52.30
2019-03-08T14:55:04.092Z,52.80
2019-03-08T14:57:31.280Z,53.10
2019-03-08T14:59:58.508Z,53.40
2019-03-08T15:02:25.847Z,54.50
2019-03-08T15:04:56.042Z,55.20
2019-03-08T15:07:23.508Z,55.70
2019-03-08T15:09:50.569Z,56.10
2019-03-08T15:12:18.358Z,56.50
2019-03-08T15:14:45.735Z,57.30
2019-03-08T15:17:13.349Z,57.60
2019-03-08T15:19:42.721Z,57.80
2019-03-08T15:22:09.807Z,57.70
2019-03-08T15:24:38.719Z,56.70
2019-03-08T15:27:06.303Z,57.10
2019-03-08T15:29:33.734Z,57.20
2019-03-08T15:32:00.772Z,58.10
2019-03-08T15:34:27.869Z,57.50
2019-03-08T15:36:54.966Z,58.30
2019-03-08T15:39:22.025Z,58.20
2019-03-08T15:41:50.860Z,57.80
2019-03-08T15:44:18.134Z,57.60
2019-03-08T15:46:47.417Z,57.50
2019-03-08T15:49:15.024Z,58.40
2019-03-08T15:51:42.048Z,58.00
2019-03-08T15:54:09.025Z,57.40
2019-03-08T15:56:35.952Z,57.20
2019-03-08T15:59:03.490Z,57.00
2019-03-08T16:01:30.545Z,57.80
2019-03-08T16:03:57.524Z,58.00
2019-03-08T16:06:24.668Z,58.50
2019-03-08T16:08:51.728Z,58.70
2019-03-08T16:11:18.804Z,58.80
2019-03-08T16:13:45.901Z,58.60
2019-03-08T16:16:12.926Z,58.70
2019-03-08T16:18:43.551Z,58.60
2019-03-08T16:21:13.196Z,58.70
2019-03-08T16:23:41.822Z,58.70
2019-03-08T16:26:09.799Z,58.80
2019-03-08T16:28:37.179Z,58.70
2019-03-08T16:31:06.374Z,58.80
2019-03-08T16:33:50.403Z,58.80
2019-03-08T16:36:19.308Z,59.20
2019-03-08T16:39:05.496Z,59.50
2019-03-08T16:41:34.389Z,59.40
2019-03-08T16:44:06.243Z,59.50
2019-03-08T16:46:35.735Z,59.50
2019-03-08T16:49:21.219Z,60.00
2019-03-08T16:51:50.188Z,59.70
2019-03-08T16:54:19.197Z,60.20
2019-03-08T16:57:04.582Z,60.70
2019-03-08T16:59:33.565Z,60.30
2019-03-08T17:02:19.002Z,61.50
2019-03-08T17:04:57.067Z,61.70
2019-03-08T17:07:26.056Z,61.70
2019-03-08T17:09:57.660Z,62.40
2019-03-08T17:12:29.640Z,63.20
2019-03-08T17:15:07.979Z,64.80
2019-03-08T17:17:45.884Z,66.00
2019-03-08T17:20:31.955Z,66.80
2019-03-08T17:23:07.119Z,67.90
2019-03-08T17:25:54.718Z,67.90
2019-03-08T17:28:29.845Z,68.60
2019-03-08T17:31:10.860Z,69.20
2019-03-08T17:33:57.046Z,70.00
2019-03-08T17:36:35.229Z,70.30
2019-03-08T17:39:06.005Z,70.80
2019-03-08T17:41:47.288Z,71.00
2019-03-08T17:44:16.251Z,71.00
2019-03-08T17:46:45.460Z,71.10
2019-03-08T17:49:23.471Z,71.40
2019-03-08T17:51:58.620Z,71.40
2019-03-08T17:54:30.521Z,70.80
2019-03-08T17:57:19.562Z,70.90
2019-03-08T17:59:57.352Z,70.60
2019-03-08T18:02:26.403Z,68.60
2019-03-08T18:04:58.413Z,69.70
2019-03-08T18:07:39.740Z,68.20
2019-03-08T18:10:11.663Z,68.10
2019-03-08T18:12:49.911Z,67.60
2019-03-08T18:15:25.030Z,67.60
2019-03-08T18:18:08.693Z,67.60
2019-03-08T18:20:40.691Z,67.50
2019-03-08T18:23:16.053Z,68.00
2019-03-08T18:25:51.381Z,68.40
2019-03-08T18:28:32.529Z,68.40
2019-03-08T18:31:07.832Z,68.80
2019-03-08T18:33:39.645Z,68.50
2019-03-08T18:36:17.255Z,68.50
2019-03-08T18:38:47.434Z,69.20
2019-03-08T18:41:31.858Z,68.90
2019-03-08T18:44:19.526Z,69.30
2019-03-08T18:46:54.443Z,68.50
2019-03-08T18:49:35.460Z,68.90
2019-03-08T18:52:04.783Z,68.60
2019-03-08T18:54:36.596Z,68.20
2019-03-08T18:57:17.788Z,67.40
2019-03-08T18:59:49.502Z,67.30
2019-03-08T19:02:27.292Z,67.20
2019-03-08T19:05:11.713Z,67.10
2019-03-08T19:07:47.142Z,67.10
2019-03-08T19:10:37.098Z,67.20
2019-03-08T19:13:12.420Z,67.20
2019-03-08T19:15:59.761Z,66.40
2019-03-08T19:18:37.850Z,66.90
2019-03-08T19:21:34.395Z,66.40
2019-03-08T19:24:03.893Z,66.40
2019-03-08T19:26:49.377Z,66.00
2019-03-08T19:29:35.481Z,66.90
2019-03-08T19:32:04.660Z,67.20
2019-03-08T19:34:35.717Z,67.10
2019-03-08T19:37:11.310Z,67.10
2019-03-08T19:39:40.358Z,67.20
2019-03-08T19:42:09.915Z,67.20
2019-03-08T19:44:44.595Z,67.10
2019-03-08T19:47:16.586Z,67.10
2019-03-08T19:49:45.912Z,67.10
2019-03-08T19:52:15.050Z,67.10
2019-03-08T19:54:50.351Z,67.40
2019-03-08T19:57:36.173Z,67.10
2019-03-08T20:00:06.623Z,67.10
2019-03-08T20:02:42.399Z,66.90
2019-03-08T20:05:17.673Z,67.80
2019-03-08T20:08:03.219Z,67.90
2019-03-08T20:10:34.417Z,68.40
2019-03-08T20:13:06.054Z,67.90
2019-03-08T20:15:35.075Z,68.40
2019-03-08T20:18:06.983Z,68.90
2019-03-08T20:20:36.249Z,68.70
2019-03-08T20:23:11.208Z,68.60
2019-03-08T20:25:49.022Z,68.80
2019-03-08T20:28:36.141Z,68.80
2019-03-08T20:31:07.602Z,69.10
2019-03-08T20:33:52.035Z,68.80
2019-03-08T20:36:39.453Z,68.80
2019-03-08T20:39:11.962Z,68.70
2019-03-08T20:41:46.659Z,69.10
2019-03-08T20:44:24.702Z,69.20
2019-03-08T20:46:53.645Z,69.50
2019-03-08T20:49:20.830Z,69.80
2019-03-08T20:51:48.070Z,70.00
2019-03-08T20:54:15.070Z,70.00
2019-03-08T20:56:42.166Z,70.10
2019-03-08T20:59:09.317Z,70.50
2019-03-08T21:01:36.361Z,70.70
2019-03-08T21:04:03.414Z,70.70
2019-03-08T21:06:30.453Z,71.10
2019-03-08T21:08:57.489Z,71.20
2019-03-08T21:11:24.659Z,71.50
2019-03-08T21:13:52.007Z,71.70
2019-03-08T21:16:19.083Z,73.00
2019-03-08T21:18:46.243Z,73.00
2019-03-08T21:21:13.216Z,73.50
2019-03-08T21:23:40.123Z,73.10
2019-03-08T21:26:07.312Z,73.10
2019-03-08T21:28:34.396Z,73.60
2019-03-08T21:31:01.549Z,73.50
2019-03-08T21:33:28.596Z,73.80
2019-03-08T21:35:55.667Z,73.40
2019-03-08T21:38:22.717Z,73.90
2019-03-08T21:40:49.782Z,73.90
2019-03-08T21:43:16.768Z,74.00
2019-03-08T21:45:43.892Z,73.90
2019-03-08T21:48:10.998Z,74.30
2019-03-08T21:50:37.990Z,73.70
2019-03-08T21:53:04.993Z,73.80
2019-03-08T21:55:31.902Z,73.80
2019-03-08T21:57:58.964Z,73.70
2019-03-08T22:00:26.516Z,73.40
2019-03-08T22:02:53.656Z,73.00
2019-03-08T22:05:22.486Z,73.00
2019-03-08T22:07:50.908Z,72.90
2019-03-08T22:10:19.895Z,73.10
2019-03-08T22:12:47.000Z,73.10
2019-03-08T22:15:14.091Z,72.40
2019-03-08T22:17:41.034Z,72.50
2019-03-08T22:20:08.378Z,72.40
2019-03-08T22:22:35.360Z,72.40
2019-03-08T22:25:02.625Z,72.30
2019-03-08T22:27:29.644Z,72.30
2019-03-08T22:29:56.893Z,72.00
2019-03-08T22:32:23.905Z,72.30
2019-03-08T22:34:50.990Z,71.80
2019-03-08T22:37:18.436Z,72.30
2019-03-08T22:39:45.379Z,72.30
2019-03-08T22:42:12.432Z,72.10
2019-03-08T22:44:39.852Z,72.20
2019-03-08T22:47:06.835Z,72.20
2019-03-08T22:49:33.762Z,72.60
2019-03-08T22:52:00.826Z,72.70
2019-03-08T22:54:27.860Z,72.60
2019-03-08T22:56:54.841Z,73.20
2019-03-08T22:59:22.318Z,73.20
2019-03-08T23:01:52.429Z,72.40
2019-03-08T23:04:19.594Z,73.50
2019-03-08T23:06:46.666Z,73.30
2019-03-08T23:09:14.712Z,73.50
2019-03-08T23:11:41.717Z,73.70
2019-03-08T23:14:08.979Z,73.90
2019-03-08T23:16:36.129Z,74.00
2019-03-08T23:19:03.186Z,73.20
2019-03-08T23:21:30.351Z,73.70
2019-03-08T23:23:57.356Z,73.10
2019-03-08T23:26:24.257Z,72.50
2019-03-08T23:29:00.337Z,72.40
2019-03-08T23:31:38.489Z,72.40
2019-03-08T23:34:05.496Z,72.40
2019-03-08T23:36:32.430Z,72.10
2019-03-08T23:38:59.407Z,72.10
2019-03-08T23:41:35.483Z,72.10
2019-03-08T23:44:03.003Z,72.00
2019-03-08T23:46:30.154Z,72.20
2019-03-08T23:48:57.416Z,72.50
2019-03-08T23:51:24.471Z,72.40
2019-03-08T23:53:51.571Z,73.60
2019-03-08T23:56:18.607Z,73.20
2019-03-08T23:58:45.618Z,73.40
